createdAt,value
2022-09-26T00:02:46.569Z,6.45
2022-09-26T00:05:49.183Z,6.30
2022-09-26T00:08:52.160Z,6.28
2022-09-26T00:11:54.992Z,6.23
2022-09-26T00:14:57.522Z,6.13
2022-09-26T00:18:00.062Z,5.57
2022-09-26T00:21:11.623Z,5.43
2022-09-26T00:24:14.965Z,6.70
2022-09-26T00:27:17.531Z,5.57
2022-09-26T00:30:20.023Z,6.30
2022-09-26T00:33:24.301Z,6.82
2022-09-26T00:36:37.577Z,5.68
2022-09-26T00:39:41.159Z,5.93
2022-09-26T00:42:43.984Z,5.60
2022-09-26T00:45:46.471Z,5.20
2022-09-26T00:49:29.203Z,5.78
2022-09-26T00:52:36.805Z,5.28
2022-09-26T00:55:44.600Z,5.70
2022-09-26T00:58:56.768Z,5.17
2022-09-26T01:02:00.991Z,5.45
2022-09-26T01:05:06.832Z,5.90
2022-09-26T01:08:10.625Z,5.78
2022-09-26T01:11:17.164Z,6.28
2022-09-26T01:14:21.683Z,5.73
2022-09-26T01:17:26.300Z,6.15
2022-09-26T01:20:54.864Z,6.05
2022-09-26T01:24:14.007Z,6.15
2022-09-26T01:27:55.711Z,5.97
2022-09-26T01:31:12.513Z,5.63
2022-09-26T01:34:20.771Z,6.03
2022-09-26T01:37:40.170Z,5.50
2022-09-26T01:41:05.123Z,6.03
2022-09-26T01:44:32.442Z,5.57
2022-09-26T01:47:38.174Z,6.00
2022-09-26T01:50:53.304Z,5.45
2022-09-26T01:54:01.901Z,5.30
2022-09-26T01:57:08.415Z,5.95
2022-09-26T02:00:12.778Z,7.68
2022-09-26T02:03:27.486Z,5.67
2022-09-26T02:06:37.394Z,5.72
2022-09-26T02:09:50.458Z,5.65
2022-09-26T02:13:00.081Z,5.65
2022-09-26T02:16:10.910Z,5.70
2022-09-26T02:19:29.407Z,5.90
2022-09-26T02:22:34.470Z,5.65
2022-09-26T02:25:37.700Z,5.70
2022-09-26T02:28:40.414Z,6.22
2022-09-26T02:31:54.021Z,6.15
2022-09-26T02:34:57.731Z,5.67
2022-09-26T02:38:01.530Z,6.15
2022-09-26T02:41:40.394Z,5.68
2022-09-26T02:45:02.454Z,5.82
2022-09-26T02:48:14.848Z,5.80
2022-09-26T02:51:49.890Z,5.93
2022-09-26T02:55:01.518Z,5.47
2022-09-26T02:58:23.316Z,5.93
2022-09-26T03:01:40.450Z,6.15
2022-09-26T03:05:01.624Z,4.88
2022-09-26T03:08:16.527Z,6.63
2022-09-26T03:11:23.389Z,5.63
2022-09-26T03:14:29.545Z,6.00
2022-09-26T03:17:35.158Z,6.50
2022-09-26T03:20:38.710Z,5.55
2022-09-26T03:23:41.361Z,6.77
2022-09-26T03:26:46.713Z,6.13
2022-09-26T03:29:49.844Z,4.90
2022-09-26T03:32:56.550Z,5.25
2022-09-26T03:36:06.522Z,5.82
2022-09-26T03:39:09.181Z,6.00
2022-09-26T03:42:35.550Z,5.18
2022-09-26T03:45:38.346Z,6.25
2022-09-26T03:48:54.234Z,5.32
2022-09-26T03:51:59.060Z,5.13
2022-09-26T03:55:01.593Z,8.10
2022-09-26T03:58:04.569Z,5.43
2022-09-26T04:01:16.085Z,6.03
2022-09-26T04:04:18.696Z,5.15
2022-09-26T04:07:22.486Z,6.25
2022-09-26T04:10:25.410Z,5.53
2022-09-26T04:13:50.058Z,4.82
2022-09-26T04:16:51.134Z,5.38
2022-09-26T04:20:05.170Z,5.85
2022-09-26T04:23:09.221Z,5.43
2022-09-26T04:26:18.833Z,5.57
2022-09-26T04:29:26.223Z,5.50
2022-09-26T04:32:54.927Z,6.15
2022-09-26T04:36:12.380Z,6.43
2022-09-26T04:39:15.807Z,5.95
2022-09-26T04:42:18.338Z,5.27
2022-09-26T04:45:21.038Z,5.55
2022-09-26T04:48:24.331Z,5.30
2022-09-26T04:51:28.620Z,5.40
2022-09-26T04:54:31.289Z,5.28
2022-09-26T04:57:34.064Z,5.67
2022-09-26T05:00:36.816Z,5.35
2022-09-26T05:03:42.069Z,5.60
2022-09-26T05:06:44.919Z,5.03
2022-09-26T05:10:01.314Z,5.30
2022-09-26T05:13:07.807Z,5.10
2022-09-26T05:16:13.114Z,5.13
2022-09-26T05:19:16.314Z,5.82
2022-09-26T05:22:36.241Z,5.70
2022-09-26T05:26:00.413Z,6.05
2022-09-26T05:29:08.548Z,5.40
2022-09-26T05:32:29.232Z,5.18
2022-09-26T05:35:35.887Z,5.75
2022-09-26T05:38:39.652Z,5.53
2022-09-26T05:41:42.509Z,5.75
2022-09-26T05:44:45.216Z,5.50
2022-09-26T05:47:50.066Z,7.05
2022-09-26T05:50:53.801Z,4.97
2022-09-26T05:53:57.945Z,5.95
2022-09-26T05:57:03.488Z,5.80
2022-09-26T06:00:15.933Z,7.23
2022-09-26T06:03:22.977Z,5.35
2022-09-26T06:06:43.477Z,8.32
2022-09-26T06:09:51.365Z,5.80
2022-09-26T06:13:07.480Z,6.97
2022-09-26T06:16:33.420Z,5.60
2022-09-26T06:19:37.607Z,6.95
2022-09-26T06:22:43.720Z,9.68
2022-09-26T06:34:33.288Z,6.90
2022-09-26T06:38:00.606Z,6.45
2022-09-26T06:41:05.499Z,4.90
2022-09-26T06:44:08.511Z,6.00
2022-09-26T06:47:29.411Z,6.35
2022-09-26T06:50:54.229Z,5.23
2022-09-26T06:53:59.113Z,6.05
2022-09-26T06:57:02.687Z,4.88
2022-09-26T07:00:07.322Z,9.45
2022-09-26T07:03:34.548Z,8.32
2022-09-26T07:07:00.289Z,8.70
2022-09-26T07:10:03.287Z,8.25
2022-09-26T07:13:16.038Z,8.45
2022-09-26T07:16:19.627Z,8.23
2022-09-26T07:19:33.354Z,7.22
2022-09-26T07:22:48.590Z,7.27
2022-09-26T07:25:52.096Z,5.80
2022-09-26T07:28:56.081Z,8.05
2022-09-26T07:32:01.047Z,8.05
2022-09-26T07:35:28.738Z,7.53
2022-09-26T07:38:31.773Z,8.47
2022-09-26T07:41:37.832Z,10.23
2022-09-26T07:45:17.436Z,9.82
2022-09-26T07:48:23.201Z,13.32
2022-09-26T07:51:44.526Z,9.05
2022-09-26T07:54:51.438Z,8.87
2022-09-26T07:58:12.567Z,6.72
2022-09-26T08:01:21.538Z,7.28
2022-09-26T08:04:24.102Z,9.88
2022-09-26T08:07:26.868Z,15.32
2022-09-26T08:10:36.798Z,15.23
2022-09-26T08:14:14.891Z,10.15
2022-09-26T08:17:33.278Z,15.55
2022-09-26T08:20:38.370Z,10.18
2022-09-26T08:23:42.054Z,12.07
2022-09-26T08:27:04.609Z,8.27
2022-09-26T08:30:10.921Z,11.88
2022-09-26T08:33:15.030Z,12.18
2022-09-26T08:36:19.467Z,11.00
2022-09-26T08:39:35.599Z,11.30
2022-09-26T08:43:47.391Z,11.60
2022-09-26T08:47:29.709Z,10.52
2022-09-26T08:50:50.738Z,8.80
2022-09-26T08:54:05.966Z,11.73
2022-09-26T08:57:39.637Z,15.70
2022-09-26T09:00:44.351Z,11.37
2022-09-26T09:03:55.073Z,12.55
2022-09-26T09:07:07.818Z,17.85
2022-09-26T09:10:17.790Z,11.48
2022-09-26T09:13:55.129Z,15.75
2022-09-26T09:17:49.745Z,10.17
2022-09-26T09:21:11.278Z,11.35
2022-09-26T09:25:00.635Z,9.68
2022-09-26T09:28:29.693Z,14.30
2022-09-26T09:31:40.529Z,13.90
2022-09-26T09:35:03.438Z,11.40
2022-09-26T09:38:38.781Z,9.07
2022-09-26T09:42:48.287Z,10.80
2022-09-26T09:46:13.071Z,11.02
2022-09-26T09:49:25.357Z,11.73
2022-09-26T09:53:06.377Z,18.60
2022-09-26T09:56:52.243Z,11.63
2022-09-26T10:00:14.490Z,19.05
2022-09-26T10:04:21.693Z,16.40
2022-09-26T10:07:24.479Z,12.45
2022-09-26T10:11:13.181Z,10.80
2022-09-26T10:14:53.611Z,17.55
2022-09-26T10:18:26.038Z,13.70
2022-09-26T10:21:40.862Z,14.40
2022-09-26T10:24:46.606Z,16.67
2022-09-26T10:27:57.133Z,16.43
2022-09-26T10:31:08.487Z,19.27
2022-09-26T10:34:33.481Z,12.43
2022-09-26T10:37:41.837Z,13.35
2022-09-26T10:41:02.389Z,13.57
2022-09-26T10:44:36.936Z,17.13
2022-09-26T10:47:46.557Z,11.65
2022-09-26T10:51:05.740Z,11.88
2022-09-26T10:54:22.291Z,13.68
2022-09-26T10:57:33.616Z,14.52
2022-09-26T11:00:42.027Z,12.47
2022-09-26T11:04:00.135Z,12.02
2022-09-26T11:07:05.744Z,15.15
2022-09-26T11:10:29.639Z,13.38
2022-09-26T11:13:58.567Z,14.38
2022-09-26T11:17:03.449Z,14.17
2022-09-26T11:20:11.866Z,13.68
2022-09-26T11:23:58.942Z,12.20
2022-09-26T11:27:23.932Z,11.38
2022-09-26T11:30:29.040Z,11.02
2022-09-26T11:33:45.196Z,14.73
2022-09-26T11:37:18.140Z,12.13
2022-09-26T11:40:37.294Z,14.00
2022-09-26T11:44:03.131Z,10.80
2022-09-26T11:47:47.352Z,14.23
2022-09-26T11:51:19.962Z,19.00
2022-09-26T11:54:33.948Z,15.95
2022-09-26T11:58:15.286Z,13.75
2022-09-26T12:02:00.192Z,19.73
2022-09-26T12:05:42.921Z,15.82
2022-09-26T12:09:18.740Z,16.83
2022-09-26T12:12:43.215Z,16.20
2022-09-26T12:16:01.267Z,15.65
2022-09-26T12:19:39.480Z,14.07
2022-09-26T12:22:53.133Z,14.95
2022-09-26T12:26:21.284Z,17.20
2022-09-26T12:29:52.045Z,12.60
2022-09-26T12:32:57.540Z,13.45
2022-09-26T12:36:21.400Z,12.13
2022-09-26T12:39:27.229Z,12.80
2022-09-26T12:42:57.872Z,11.77
2022-09-26T12:46:04.183Z,12.00
2022-09-26T12:49:45.287Z,10.38
2022-09-26T12:53:13.872Z,15.10
2022-09-26T12:56:43.748Z,14.90
2022-09-26T13:00:10.570Z,16.57
2022-09-26T13:03:24.186Z,15.00
2022-09-26T13:06:36.154Z,13.45
2022-09-26T13:09:52.990Z,10.63
2022-09-26T13:13:36.131Z,12.60
2022-09-26T13:16:57.442Z,12.13
2022-09-26T13:20:28.055Z,12.57
2022-09-26T13:23:55.013Z,15.95
2022-09-26T13:27:22.622Z,15.50
2022-09-26T13:30:35.276Z,15.75
2022-09-26T13:33:49.739Z,15.93
2022-09-26T13:36:53.071Z,14.77
2022-09-26T13:40:09.058Z,16.17
2022-09-26T13:43:44.424Z,12.75
2022-09-26T13:47:06.201Z,16.02
2022-09-26T13:50:23.434Z,11.83
2022-09-26T13:53:34.849Z,18.10
2022-09-26T13:56:37.533Z,11.70
2022-09-26T13:59:51.614Z,12.05
2022-09-26T14:03:18.593Z,16.27
2022-09-26T14:06:27.634Z,14.13
2022-09-26T14:09:59.273Z,13.13
2022-09-26T14:13:03.570Z,13.45
2022-09-26T14:16:28.808Z,10.65
2022-09-26T14:19:39.387Z,13.35
2022-09-26T14:22:52.347Z,11.70
2022-09-26T14:25:56.734Z,15.25
2022-09-26T14:29:28.706Z,10.23
2022-09-26T14:32:39.583Z,14.60
2022-09-26T14:35:43.310Z,12.18
2022-09-26T14:38:48.220Z,11.37
2022-09-26T14:41:50.839Z,9.15
2022-09-26T14:45:06.475Z,12.68
2022-09-26T14:48:36.176Z,15.48
2022-09-26T14:51:41.863Z,14.45
2022-09-26T14:54:46.146Z,14.23
2022-09-26T14:57:49.862Z,10.70
2022-09-26T15:00:55.078Z,15.07
2022-09-26T15:04:17.183Z,10.27
2022-09-26T15:07:25.168Z,12.57
2022-09-26T15:10:40.320Z,11.00
2022-09-26T15:13:45.839Z,11.57
2022-09-26T15:16:53.252Z,11.02
2022-09-26T15:19:59.614Z,10.50
2022-09-26T15:23:13.615Z,9.25
2022-09-26T15:26:35.092Z,12.23
2022-09-26T15:29:46.424Z,13.13
2022-09-26T15:32:49.353Z,10.02
2022-09-26T15:35:55.079Z,12.38
2022-09-26T15:38:58.837Z,10.93
2022-09-26T15:42:32.176Z,12.93
2022-09-26T15:45:47.193Z,11.60
2022-09-26T15:48:51.810Z,10.77
2022-09-26T15:51:56.506Z,12.40
2022-09-26T15:55:00.404Z,13.52
2022-09-26T15:58:05.818Z,12.83
2022-09-26T16:01:09.047Z,12.02
2022-09-26T16:04:21.742Z,8.80
2022-09-26T16:07:26.984Z,11.68
2022-09-26T16:10:33.349Z,11.02
2022-09-26T16:13:46.370Z,23.37
2022-09-26T16:16:49.007Z,20.90
2022-09-26T16:20:02.482Z,15.75
2022-09-26T16:23:05.849Z,16.08
2022-09-26T16:26:21.427Z,14.75
2022-09-26T16:29:32.961Z,14.80
2022-09-26T16:32:35.559Z,14.38
2022-09-26T16:35:45.554Z,11.35
2022-09-26T16:38:53.567Z,15.23
2022-09-26T16:42:03.380Z,10.98
2022-09-26T16:45:07.455Z,17.53
2022-09-26T16:48:35.763Z,16.45
2022-09-26T16:51:39.826Z,16.98
2022-09-26T16:54:42.746Z,18.60
2022-09-26T16:57:57.911Z,17.08
2022-09-26T17:01:19.218Z,15.07
2022-09-26T17:04:36.107Z,16.80
2022-09-26T17:07:38.644Z,14.48
2022-09-26T17:10:41.554Z,11.98
2022-09-26T17:13:44.488Z,14.88
2022-09-26T17:16:51.316Z,12.03
2022-09-26T17:19:59.580Z,14.18
2022-09-26T17:23:21.910Z,15.00
2022-09-26T17:26:25.023Z,11.23
2022-09-26T17:29:30.583Z,11.52
2022-09-26T17:32:44.221Z,14.73
2022-09-26T17:35:47.009Z,13.63
2022-09-26T17:38:52.355Z,13.18
2022-09-26T17:41:59.270Z,19.70
2022-09-26T17:45:01.814Z,15.35
2022-09-26T17:48:10.880Z,13.90
2022-09-26T17:51:14.014Z,15.65
2022-09-26T17:54:20.467Z,16.80
2022-09-26T17:57:25.819Z,13.93
2022-09-26T18:00:36.154Z,13.05
2022-09-26T18:03:39.859Z,18.90
2022-09-26T18:06:43.036Z,17.33
2022-09-26T18:09:46.766Z,13.35
2022-09-26T18:12:58.017Z,14.88
2022-09-26T18:16:01.370Z,13.85
2022-09-26T18:19:07.504Z,10.17
2022-09-26T18:22:19.025Z,13.35
2022-09-26T18:25:25.103Z,11.23
2022-09-26T18:28:28.081Z,11.88
2022-09-26T18:31:33.909Z,15.52
2022-09-26T18:34:36.745Z,14.33
2022-09-26T18:37:39.274Z,12.35
2022-09-26T18:40:51.977Z,13.35
2022-09-26T18:43:57.057Z,13.10
2022-09-26T18:47:07.942Z,12.55
2022-09-26T18:50:32.117Z,17.43
2022-09-26T18:53:37.685Z,13.52
2022-09-26T18:56:59.729Z,12.15
2022-09-26T19:00:03.196Z,15.68
2022-09-26T19:03:06.165Z,16.95
2022-09-26T19:06:18.777Z,9.83
2022-09-26T19:09:22.782Z,10.35
2022-09-26T19:12:25.990Z,11.32
2022-09-26T19:15:29.355Z,11.20
2022-09-26T19:18:31.897Z,11.27
2022-09-26T19:21:42.080Z,11.33
2022-09-26T19:24:51.042Z,11.45
2022-09-26T19:27:54.132Z,11.23
2022-09-26T19:30:56.990Z,11.57
2022-09-26T19:33:59.729Z,12.27
2022-09-26T19:37:03.498Z,13.47
2022-09-26T19:40:15.765Z,12.77
2022-09-26T19:43:18.387Z,11.00
2022-09-26T19:46:27.649Z,10.55
2022-09-26T19:49:32.919Z,14.25
2022-09-26T19:52:35.795Z,10.07
2022-09-26T19:55:39.520Z,11.68
2022-09-26T19:58:42.995Z,12.00
2022-09-26T20:01:48.764Z,11.75
2022-09-26T20:04:51.646Z,14.15
2022-09-26T20:07:54.161Z,11.73
2022-09-26T20:10:56.889Z,9.82
2022-09-26T20:14:18.029Z,10.52
2022-09-26T20:17:24.684Z,12.75
2022-09-26T20:20:27.806Z,10.73
2022-09-26T20:23:30.528Z,11.77
2022-09-26T20:26:33.713Z,10.73
2022-09-26T20:29:55.530Z,12.55
2022-09-26T20:32:59.244Z,12.35
2022-09-26T20:36:04.445Z,11.90
2022-09-26T20:39:12.674Z,10.10
2022-09-26T20:42:18.815Z,10.45
2022-09-26T20:45:30.775Z,11.18
2022-09-26T20:48:36.151Z,12.32
2022-09-26T20:51:38.908Z,12.75
2022-09-26T20:54:42.388Z,13.13
2022-09-26T20:57:45.772Z,12.57
2022-09-26T21:00:48.891Z,9.48
2022-09-26T21:03:55.140Z,9.75
2022-09-26T21:06:58.216Z,10.88
2022-09-26T21:10:00.856Z,10.33
2022-09-26T21:13:03.602Z,10.48
2022-09-26T21:16:06.676Z,11.10
2022-09-26T21:19:16.074Z,10.10
2022-09-26T21:22:20.834Z,9.98
2022-09-26T21:25:25.911Z,10.33
2022-09-26T21:28:28.972Z,9.82
2022-09-26T21:31:34.087Z,11.40
2022-09-26T21:34:37.649Z,11.35
2022-09-26T21:37:42.275Z,12.48
2022-09-26T21:40:47.140Z,10.20
2022-09-26T21:43:59.205Z,10.90
2022-09-26T21:47:01.980Z,11.23
2022-09-26T21:50:06.654Z,11.60
2022-09-26T21:53:13.540Z,10.05
2022-09-26T21:56:21.285Z,11.23
2022-09-26T21:59:25.085Z,10.02
2022-09-26T22:02:28.092Z,10.55
2022-09-26T22:05:31.964Z,10.98
2022-09-26T22:08:34.528Z,10.65
2022-09-26T22:11:37.448Z,11.47
2022-09-26T22:14:39.936Z,9.90
2022-09-26T22:17:42.965Z,11.32
2022-09-26T22:20:45.532Z,10.68
2022-09-26T22:23:51.824Z,11.40
2022-09-26T22:26:54.308Z,10.70
2022-09-26T22:29:57.026Z,12.60
2022-09-26T22:32:59.541Z,9.70
2022-09-26T22:36:02.308Z,11.13
2022-09-26T22:39:04.947Z,9.38
2022-09-26T22:42:07.745Z,13.53
2022-09-26T22:45:11.183Z,11.02
2022-09-26T22:48:13.650Z,10.82
2022-09-26T22:51:17.177Z,10.43
2022-09-26T22:54:19.810Z,10.50
2022-09-26T22:57:22.401Z,10.30
2022-09-26T23:00:25.162Z,11.07
2022-09-26T23:03:27.962Z,10.57
2022-09-26T23:06:31.557Z,10.85
2022-09-26T23:09:34.009Z,9.77
2022-09-26T23:12:40.521Z,9.00
2022-09-26T23:15:43.386Z,10.98
2022-09-26T23:18:46.313Z,11.80
2022-09-26T23:21:49.020Z,9.75
2022-09-26T23:24:51.889Z,11.25
2022-09-26T23:27:54.521Z,9.50
2022-09-26T23:31:04.708Z,9.63
2022-09-26T23:34:08.135Z,10.15
2022-09-26T23:37:10.801Z,9.38
2022-09-26T23:40:13.402Z,10.27
2022-09-26T23:43:16.045Z,11.70
2022-09-26T23:46:18.794Z,11.13
2022-09-26T23:49:21.590Z,8.85
2022-09-26T23:52:24.576Z,8.95
2022-09-26T23:55:27.486Z,8.73
2022-09-26T23:58:30.053Z,10.03
